Terminal Aerodrome Forecast
Issued by NWS

Home | Current Version | Previous Version | Text Only | Print | Product List | Glossary On
Versions: 1 2 3 4 5 6 7 8 9 10 11 12
000
FTUS45 KGGW 290100 AAA
TAFSDY
TAF AMD
KSDY 290105Z 2901/2924 01009KT P6SM BKN040
     FM290300 01008KT P6SM BKN090
     FM290700 36007KT P6SM SCT060 BKN200
     FM292100 32007KT P6SM SCT015 BKN110
      AMD LTD TO CLD VIS AND WIND=

USA.gov is the U.S. government's official web portal to all federal, state and local government web resources and services.